createdAt,value
2022-08-30T00:07:06.733Z,15.13
2022-08-30T00:17:08.203Z,15.93
2022-08-30T00:27:09.668Z,15.00
2022-08-30T00:37:11.193Z,14.97
2022-08-30T00:47:12.977Z,16.07
2022-08-30T00:57:15.476Z,17.27
2022-08-30T01:07:18.119Z,17.43
2022-08-30T01:17:21.977Z,14.40
2022-08-30T01:27:26.942Z,14.80
2022-08-30T01:37:31.490Z,15.67
2022-08-30T01:47:33.231Z,17.80
2022-08-30T01:57:34.768Z,17.63
2022-08-30T02:07:36.670Z,16.23
2022-08-30T02:17:38.308Z,16.43
2022-08-30T02:27:39.817Z,16.67
2022-08-30T02:37:44.347Z,17.33
2022-08-30T02:47:47.113Z,15.37
2022-08-30T02:57:48.925Z,15.27
2022-08-30T03:07:50.597Z,16.23
2022-08-30T03:17:53.721Z,15.93
2022-08-30T03:27:55.225Z,15.20
2022-08-30T03:37:57.048Z,16.00
2022-08-30T03:47:59.092Z,16.10
2022-08-30T03:58:00.635Z,16.73
2022-08-30T04:08:02.337Z,18.23
2022-08-30T04:18:03.839Z,15.73
2022-08-30T04:28:05.826Z,15.27
2022-08-30T04:38:07.646Z,16.17
2022-08-30T04:48:09.157Z,13.93
2022-08-30T04:58:11.761Z,15.57
2022-08-30T05:08:16.948Z,14.60
2022-08-30T05:18:18.507Z,14.90
2022-08-30T05:28:23.108Z,13.13
2022-08-30T05:38:27.054Z,12.80
2022-08-30T05:48:28.818Z,10.40
2022-08-30T05:58:31.298Z,10.43
2022-08-30T06:08:32.803Z,10.80
2022-08-30T06:18:34.276Z,9.90
2022-08-30T06:28:36.046Z,10.17
2022-08-30T06:38:38.562Z,10.03
2022-08-30T06:48:42.219Z,9.07
2022-08-30T06:58:46.306Z,8.63
2022-08-30T07:08:50.537Z,6.70
2022-08-30T07:18:58.765Z,7.53
2022-08-30T07:29:01.836Z,7.97
2022-08-30T07:39:05.253Z,6.50
2022-08-30T07:49:11.263Z,6.85
2022-08-30T07:59:12.958Z,6.13
2022-08-30T08:09:14.428Z,6.35
2022-08-30T08:19:16.099Z,6.82
2022-08-30T08:29:17.561Z,6.30
2022-08-30T08:39:19.517Z,5.53
2022-08-30T08:49:21.230Z,5.20
2022-08-30T08:59:22.927Z,6.10
2022-08-30T09:09:34.332Z,5.10
2022-08-30T09:19:41.808Z,5.10
2022-08-30T09:29:54.138Z,5.75
2022-08-30T09:39:55.732Z,4.35
2022-08-30T09:50:07.719Z,5.18
2022-08-30T10:00:18.444Z,4.78
2022-08-30T10:10:29.096Z,3.92
2022-08-30T10:20:48.956Z,4.10
2022-08-30T10:31:00.136Z,5.88
2022-08-30T10:41:42.968Z,4.72
2022-08-30T10:51:50.737Z,4.43
2022-08-30T11:02:18.546Z,3.53
2022-08-30T11:12:22.748Z,4.38
2022-08-30T11:22:39.084Z,4.13
2022-08-30T11:33:07.991Z,9.65
2022-08-30T11:43:40.126Z,9.25
2022-08-30T11:53:53.576Z,8.45
2022-08-30T12:04:17.767Z,8.38
2022-08-30T12:14:51.816Z,8.85
2022-08-30T12:24:54.602Z,9.63
2022-08-30T12:34:59.436Z,9.35
2022-08-30T12:45:07.177Z,9.35
2022-08-30T12:55:23.542Z,9.57
2022-08-30T13:05:45.781Z,8.80
2022-08-30T13:15:50.026Z,8.15
2022-08-30T13:25:51.927Z,9.30
2022-08-30T13:35:53.449Z,8.13
2022-08-30T13:45:57.505Z,9.05
2022-08-30T13:55:59.990Z,6.82
2022-08-30T14:06:29.387Z,10.38
2022-08-30T14:16:27.123Z,11.70
2022-08-30T14:26:33.703Z,12.25
2022-08-30T14:36:37.789Z,14.40
2022-08-30T14:46:42.338Z,8.55
2022-08-30T14:56:44.291Z,9.50
2022-08-30T15:06:48.157Z,9.05
2022-08-30T15:16:49.959Z,10.25
2022-08-30T15:26:52.419Z,8.68
2022-08-30T15:36:53.912Z,10.35
2022-08-30T15:46:55.713Z,9.20
2022-08-30T15:57:00.288Z,11.50
2022-08-30T16:07:04.783Z,13.95
2022-08-30T16:17:06.424Z,11.82
2022-08-30T16:27:08.772Z,12.10
2022-08-30T16:37:10.419Z,4.77
2022-08-30T16:47:14.267Z,5.23
2022-08-30T16:57:15.861Z,6.80
2022-08-30T17:07:22.407Z,5.47
2022-08-30T17:17:24.234Z,5.33
2022-08-30T17:27:26.241Z,12.63
2022-08-30T17:37:28.005Z,5.53
2022-08-30T17:47:29.481Z,12.27
2022-08-30T17:57:41.753Z,5.90
2022-08-30T18:07:43.238Z,5.73
2022-08-30T18:17:47.567Z,5.73
2022-08-30T18:27:57.268Z,4.53
2022-08-30T18:38:00.438Z,5.80
2022-08-30T18:48:02.102Z,5.90
2022-08-30T18:58:03.979Z,6.10
2022-08-30T19:08:06.752Z,6.27
2022-08-30T19:18:16.649Z,6.33
2022-08-30T19:28:19.505Z,6.47
2022-08-30T19:38:21.382Z,6.43
2022-08-30T19:48:24.339Z,6.20
2022-08-30T19:58:33.537Z,6.67
2022-08-30T20:08:35.071Z,6.87
2022-08-30T20:18:38.092Z,7.00
2022-08-30T20:28:40.771Z,7.50
2022-08-30T20:38:44.241Z,7.30
2022-08-30T20:48:46.678Z,6.27
2022-08-30T20:58:50.689Z,5.07
2022-08-30T21:08:52.603Z,7.70
2022-08-30T21:18:54.277Z,9.03
2022-08-30T21:28:55.877Z,8.60
2022-08-30T21:39:00.894Z,9.10
2022-08-30T21:49:05.927Z,10.03
2022-08-30T21:59:08.971Z,9.87
2022-08-30T22:09:16.181Z,8.43
2022-08-30T22:19:22.878Z,9.93
2022-08-30T22:29:24.872Z,15.07
2022-08-30T22:39:26.977Z,16.00
2022-08-30T22:49:28.596Z,15.07
2022-08-30T22:59:32.350Z,13.63
2022-08-30T23:09:34.052Z,12.50
2022-08-30T23:19:35.552Z,13.77
2022-08-30T23:29:55.725Z,13.37
2022-08-30T23:40:16.049Z,12.43
2022-08-30T23:50:36.317Z,13.53
